sensor_id;sensor_type;location;lat;lon;timestamp;P1;durP1;ratioP1;P2;durP2;ratioP2
77409;SDS011;66481;51.332;22.804;2023-04-24T00:02:50;8.52;;;5.53;;
77409;SDS011;66481;51.332;22.804;2023-04-24T00:06:51;8.90;;;5.53;;
77409;SDS011;66481;51.332;22.804;2023-04-24T00:10:57;9.73;;;6.22;;
77409;SDS011;66481;51.332;22.804;2023-04-24T00:14:59;8.13;;;6.25;;
77409;SDS011;66481;51.332;22.804;2023-04-24T00:19:01;8.02;;;5.40;;
77409;SDS011;66481;51.332;22.804;2023-04-24T00:23:02;7.55;;;5.40;;
77409;SDS011;66481;51.332;22.804;2023-04-24T00:27:03;11.25;;;6.00;;
77409;SDS011;66481;51.332;22.804;2023-04-24T00:31:04;7.93;;;5.30;;
77409;SDS011;66481;51.332;22.804;2023-04-24T00:35:05;8.30;;;5.40;;
77409;SDS011;66481;51.332;22.804;2023-04-24T00:39:06;8.75;;;5.60;;
77409;SDS011;66481;51.332;22.804;2023-04-24T00:43:08;9.77;;;6.85;;
77409;SDS011;66481;51.332;22.804;2023-04-24T00:47:10;8.18;;;6.93;;
77409;SDS011;66481;51.332;22.804;2023-04-24T00:51:12;7.38;;;5.32;;
77409;SDS011;66481;51.332;22.804;2023-04-24T00:55:13;8.75;;;6.60;;
77409;SDS011;66481;51.332;22.804;2023-04-24T00:59:18;9.45;;;5.68;;
77409;SDS011;66481;51.332;22.804;2023-04-24T01:03:20;8.95;;;5.88;;
77409;SDS011;66481;51.332;22.804;2023-04-24T01:07:23;9.48;;;5.90;;
77409;SDS011;66481;51.332;22.804;2023-04-24T01:11:25;8.00;;;5.60;;
77409;SDS011;66481;51.332;22.804;2023-04-24T01:15:26;9.30;;;5.63;;
77409;SDS011;66481;51.332;22.804;2023-04-24T01:19:27;8.00;;;5.90;;
77409;SDS011;66481;51.332;22.804;2023-04-24T01:23:28;9.40;;;6.03;;
77409;SDS011;66481;51.332;22.804;2023-04-24T01:27:29;9.50;;;6.22;;
77409;SDS011;66481;51.332;22.804;2023-04-24T01:31:30;9.18;;;6.28;;
77409;SDS011;66481;51.332;22.804;2023-04-24T01:35:33;7.72;;;5.85;;
77409;SDS011;66481;51.332;22.804;2023-04-24T01:39:36;8.73;;;5.43;;
77409;SDS011;66481;51.332;22.804;2023-04-24T01:43:37;6.93;;;6.30;;
77409;SDS011;66481;51.332;22.804;2023-04-24T01:47:39;8.32;;;5.47;;
77409;SDS011;66481;51.332;22.804;2023-04-24T01:51:40;9.07;;;6.00;;
77409;SDS011;66481;51.332;22.804;2023-04-24T01:55:41;6.30;;;4.80;;
77409;SDS011;66481;51.332;22.804;2023-04-24T01:59:42;6.95;;;5.00;;
77409;SDS011;66481;51.332;22.804;2023-04-24T02:03:43;7.15;;;5.97;;
77409;SDS011;66481;51.332;22.804;2023-04-24T02:07:44;7.47;;;5.85;;
77409;SDS011;66481;51.332;22.804;2023-04-24T02:11:45;6.35;;;5.28;;
77409;SDS011;66481;51.332;22.804;2023-04-24T02:15:46;8.70;;;5.28;;
77409;SDS011;66481;51.332;22.804;2023-04-24T02:19:47;7.53;;;5.28;;
77409;SDS011;66481;51.332;22.804;2023-04-24T02:23:48;7.80;;;5.57;;
77409;SDS011;66481;51.332;22.804;2023-04-24T02:27:49;10.63;;;5.60;;
77409;SDS011;66481;51.332;22.804;2023-04-24T02:31:50;9.00;;;5.45;;
77409;SDS011;66481;51.332;22.804;2023-04-24T02:35:51;9.50;;;6.40;;
77409;SDS011;66481;51.332;22.804;2023-04-24T02:39:52;7.28;;;6.20;;
77409;SDS011;66481;51.332;22.804;2023-04-24T02:43:53;7.57;;;4.90;;
77409;SDS011;66481;51.332;22.804;2023-04-24T02:47:53;6.50;;;5.90;;
77409;SDS011;66481;51.332;22.804;2023-04-24T02:51:54;7.40;;;5.57;;
77409;SDS011;66481;51.332;22.804;2023-04-24T02:55:55;7.72;;;6.20;;
77409;SDS011;66481;51.332;22.804;2023-04-24T02:59:56;6.95;;;5.78;;
77409;SDS011;66481;51.332;22.804;2023-04-24T03:03:57;7.93;;;5.28;;
77409;SDS011;66481;51.332;22.804;2023-04-24T03:07:58;9.00;;;5.00;;
77409;SDS011;66481;51.332;22.804;2023-04-24T03:11:59;8.32;;;6.07;;
77409;SDS011;66481;51.332;22.804;2023-04-24T03:16:00;9.40;;;5.22;;
77409;SDS011;66481;51.332;22.804;2023-04-24T03:20:02;6.82;;;5.90;;
77409;SDS011;66481;51.332;22.804;2023-04-24T03:24:06;7.80;;;5.72;;
77409;SDS011;66481;51.332;22.804;2023-04-24T03:28:09;11.20;;;6.45;;
77409;SDS011;66481;51.332;22.804;2023-04-24T03:32:09;8.80;;;6.00;;
77409;SDS011;66481;51.332;22.804;2023-04-24T03:36:11;7.28;;;6.35;;
77409;SDS011;66481;51.332;22.804;2023-04-24T03:40:12;8.55;;;5.28;;
77409;SDS011;66481;51.332;22.804;2023-04-24T03:44:12;5.85;;;5.25;;
77409;SDS011;66481;51.332;22.804;2023-04-24T03:48:14;8.50;;;5.53;;
77409;SDS011;66481;51.332;22.804;2023-04-24T03:52:15;8.02;;;5.75;;
77409;SDS011;66481;51.332;22.804;2023-04-24T03:56:16;7.85;;;5.55;;
77409;SDS011;66481;51.332;22.804;2023-04-24T04:00:18;10.07;;;5.65;;
77409;SDS011;66481;51.332;22.804;2023-04-24T04:04:19;7.30;;;5.32;;
77409;SDS011;66481;51.332;22.804;2023-04-24T04:08:20;9.75;;;5.82;;
77409;SDS011;66481;51.332;22.804;2023-04-24T04:12:20;8.88;;;5.80;;
77409;SDS011;66481;51.332;22.804;2023-04-24T04:16:22;8.07;;;5.65;;
77409;SDS011;66481;51.332;22.804;2023-04-24T04:20:23;12.50;;;6.85;;
77409;SDS011;66481;51.332;22.804;2023-04-24T04:24:25;7.70;;;6.30;;
77409;SDS011;66481;51.332;22.804;2023-04-24T04:28:27;9.57;;;6.22;;
77409;SDS011;66481;51.332;22.804;2023-04-24T04:32:28;9.98;;;5.43;;
77409;SDS011;66481;51.332;22.804;2023-04-24T04:36:29;9.10;;;6.85;;
77409;SDS011;66481;51.332;22.804;2023-04-24T04:40:30;8.40;;;6.63;;
77409;SDS011;66481;51.332;22.804;2023-04-24T04:44:31;8.18;;;5.82;;
77409;SDS011;66481;51.332;22.804;2023-04-24T04:48:32;8.20;;;6.57;;
77409;SDS011;66481;51.332;22.804;2023-04-24T04:52:33;8.02;;;5.30;;
77409;SDS011;66481;51.332;22.804;2023-04-24T04:56:34;8.13;;;5.80;;
77409;SDS011;66481;51.332;22.804;2023-04-24T05:00:35;11.05;;;6.53;;
77409;SDS011;66481;51.332;22.804;2023-04-24T05:04:38;8.60;;;6.72;;
77409;SDS011;66481;51.332;22.804;2023-04-24T05:08:39;9.55;;;6.45;;
77409;SDS011;66481;51.332;22.804;2023-04-24T05:12:40;8.77;;;5.82;;
77409;SDS011;66481;51.332;22.804;2023-04-24T05:16:41;12.68;;;6.60;;
77409;SDS011;66481;51.332;22.804;2023-04-24T05:20:43;8.98;;;6.25;;
77409;SDS011;66481;51.332;22.804;2023-04-24T05:24:47;7.18;;;5.78;;
77409;SDS011;66481;51.332;22.804;2023-04-24T05:28:49;7.07;;;5.32;;
77409;SDS011;66481;51.332;22.804;2023-04-24T05:32:50;8.13;;;5.70;;
77409;SDS011;66481;51.332;22.804;2023-04-24T05:36:51;10.48;;;5.85;;
77409;SDS011;66481;51.332;22.804;2023-04-24T05:40:53;7.18;;;6.05;;
77409;SDS011;66481;51.332;22.804;2023-04-24T05:44:53;10.48;;;6.25;;
77409;SDS011;66481;51.332;22.804;2023-04-24T05:48:55;10.02;;;7.35;;
77409;SDS011;66481;51.332;22.804;2023-04-24T05:52:56;7.90;;;5.90;;
77409;SDS011;66481;51.332;22.804;2023-04-24T05:56:59;8.18;;;6.30;;
77409;SDS011;66481;51.332;22.804;2023-04-24T06:01:00;8.68;;;5.47;;
77409;SDS011;66481;51.332;22.804;2023-04-24T06:05:02;7.03;;;5.72;;
77409;SDS011;66481;51.332;22.804;2023-04-24T06:09:05;7.82;;;5.68;;
77409;SDS011;66481;51.332;22.804;2023-04-24T06:13:06;6.82;;;5.15;;
77409;SDS011;66481;51.332;22.804;2023-04-24T06:17:07;6.85;;;5.90;;
77409;SDS011;66481;51.332;22.804;2023-04-24T06:21:08;8.13;;;5.65;;
77409;SDS011;66481;51.332;22.804;2023-04-24T06:25:09;6.38;;;5.78;;
77409;SDS011;66481;51.332;22.804;2023-04-24T06:29:11;10.15;;;5.78;;
77409;SDS011;66481;51.332;22.804;2023-04-24T06:33:12;7.85;;;5.38;;
77409;SDS011;66481;51.332;22.804;2023-04-24T06:37:13;6.90;;;6.20;;
77409;SDS011;66481;51.332;22.804;2023-04-24T06:41:15;8.07;;;5.50;;
77409;SDS011;66481;51.332;22.804;2023-04-24T06:45:15;7.43;;;6.30;;
77409;SDS011;66481;51.332;22.804;2023-04-24T06:49:17;6.55;;;5.68;;
77409;SDS011;66481;51.332;22.804;2023-04-24T06:53:18;5.72;;;5.18;;
77409;SDS011;66481;51.332;22.804;2023-04-24T06:57:19;6.28;;;5.68;;
77409;SDS011;66481;51.332;22.804;2023-04-24T07:01:20;7.80;;;5.82;;
77409;SDS011;66481;51.332;22.804;2023-04-24T07:05:24;6.93;;;6.13;;
77409;SDS011;66481;51.332;22.804;2023-04-24T07:09:25;6.40;;;5.80;;
77409;SDS011;66481;51.332;22.804;2023-04-24T07:13:27;8.02;;;6.60;;
77409;SDS011;66481;51.332;22.804;2023-04-24T07:17:28;7.68;;;5.85;;
77409;SDS011;66481;51.332;22.804;2023-04-24T07:21:29;8.02;;;5.90;;
77409;SDS011;66481;51.332;22.804;2023-04-24T07:25:32;7.10;;;6.18;;
77409;SDS011;66481;51.332;22.804;2023-04-24T07:29:33;8.52;;;7.15;;
77409;SDS011;66481;51.332;22.804;2023-04-24T07:33:34;7.22;;;5.35;;
77409;SDS011;66481;51.332;22.804;2023-04-24T07:41:37;7.22;;;5.65;;
77409;SDS011;66481;51.332;22.804;2023-04-24T07:45:38;6.50;;;5.22;;
77409;SDS011;66481;51.332;22.804;2023-04-24T07:49:40;7.07;;;5.78;;
77409;SDS011;66481;51.332;22.804;2023-04-24T07:53:42;6.38;;;5.47;;
77409;SDS011;66481;51.332;22.804;2023-04-24T07:57:44;6.38;;;5.47;;
77409;SDS011;66481;51.332;22.804;2023-04-24T08:01:45;9.43;;;5.43;;
77409;SDS011;66481;51.332;22.804;2023-04-24T08:05:46;7.53;;;6.00;;
77409;SDS011;66481;51.332;22.804;2023-04-24T08:09:48;6.25;;;5.13;;
77409;SDS011;66481;51.332;22.804;2023-04-24T08:13:49;6.97;;;6.28;;
77409;SDS011;66481;51.332;22.804;2023-04-24T08:17:50;6.32;;;5.60;;
77409;SDS011;66481;51.332;22.804;2023-04-24T08:21:52;6.88;;;5.55;;
77409;SDS011;66481;51.332;22.804;2023-04-24T08:25:54;8.65;;;6.20;;
77409;SDS011;66481;51.332;22.804;2023-04-24T08:29:56;7.13;;;6.40;;
77409;SDS011;66481;51.332;22.804;2023-04-24T08:33:59;6.82;;;6.13;;
77409;SDS011;66481;51.332;22.804;2023-04-24T08:38:01;6.88;;;6.03;;
77409;SDS011;66481;51.332;22.804;2023-04-24T08:42:02;7.72;;;6.35;;
77409;SDS011;66481;51.332;22.804;2023-04-24T08:46:08;7.53;;;6.72;;
77409;SDS011;66481;51.332;22.804;2023-04-24T08:50:11;6.80;;;4.85;;
77409;SDS011;66481;51.332;22.804;2023-04-24T08:54:13;6.22;;;5.43;;
77409;SDS011;66481;51.332;22.804;2023-04-24T08:58:15;6.38;;;5.25;;
77409;SDS011;66481;51.332;22.804;2023-04-24T09:02:17;9.85;;;5.13;;
77409;SDS011;66481;51.332;22.804;2023-04-24T09:06:18;7.32;;;5.60;;
77409;SDS011;66481;51.332;22.804;2023-04-24T09:10:23;7.00;;;6.30;;
77409;SDS011;66481;51.332;22.804;2023-04-24T09:14:25;8.18;;;5.97;;
77409;SDS011;66481;51.332;22.804;2023-04-24T09:18:27;6.20;;;5.32;;
77409;SDS011;66481;51.332;22.804;2023-04-24T09:22:31;5.72;;;5.03;;
77409;SDS011;66481;51.332;22.804;2023-04-24T09:26:34;6.40;;;5.63;;
77409;SDS011;66481;51.332;22.804;2023-04-24T09:30:37;7.05;;;6.28;;
77409;SDS011;66481;51.332;22.804;2023-04-24T09:34:38;7.00;;;5.55;;
77409;SDS011;66481;51.332;22.804;2023-04-24T09:38:39;6.10;;;4.70;;
77409;SDS011;66481;51.332;22.804;2023-04-24T09:42:43;7.18;;;5.68;;
77409;SDS011;66481;51.332;22.804;2023-04-24T09:46:48;6.40;;;5.72;;
77409;SDS011;66481;51.332;22.804;2023-04-24T09:50:55;8.13;;;5.97;;
77409;SDS011;66481;51.332;22.804;2023-04-24T09:54:56;5.95;;;5.43;;
77409;SDS011;66481;51.332;22.804;2023-04-24T09:59:03;9.10;;;5.43;;
77409;SDS011;66481;51.332;22.804;2023-04-24T10:03:05;7.40;;;5.22;;
77409;SDS011;66481;51.332;22.804;2023-04-24T10:07:06;6.80;;;6.20;;
77409;SDS011;66481;51.332;22.804;2023-04-24T10:11:10;5.70;;;4.97;;
77409;SDS011;66481;51.332;22.804;2023-04-24T10:15:11;7.45;;;5.60;;
77409;SDS011;66481;51.332;22.804;2023-04-24T10:19:14;6.70;;;4.72;;
77409;SDS011;66481;51.332;22.804;2023-04-24T10:23:16;8.00;;;4.93;;
77409;SDS011;66481;51.332;22.804;2023-04-24T18:45:53;21.40;;;11.02;;
77409;SDS011;66481;51.332;22.804;2023-04-24T18:49:55;14.30;;;9.27;;
77409;SDS011;66481;51.332;22.804;2023-04-24T18:53:56;16.15;;;8.45;;
77409;SDS011;66481;51.332;22.804;2023-04-24T18:57:57;13.23;;;8.57;;
77409;SDS011;66481;51.332;22.804;2023-04-24T19:01:58;9.65;;;7.55;;
77409;SDS011;66481;51.332;22.804;2023-04-24T19:06:00;12.00;;;7.28;;
77409;SDS011;66481;51.332;22.804;2023-04-24T19:10:01;10.20;;;5.75;;
77409;SDS011;66481;51.332;22.804;2023-04-24T19:14:03;10.82;;;6.50;;
77409;SDS011;66481;51.332;22.804;2023-04-24T19:18:05;8.50;;;6.22;;
77409;SDS011;66481;51.332;22.804;2023-04-24T19:22:06;7.38;;;5.97;;
77409;SDS011;66481;51.332;22.804;2023-04-24T19:26:08;7.00;;;5.72;;
77409;SDS011;66481;51.332;22.804;2023-04-24T19:30:09;7.25;;;5.63;;
77409;SDS011;66481;51.332;22.804;2023-04-24T19:34:10;11.73;;;7.63;;
77409;SDS011;66481;51.332;22.804;2023-04-24T19:38:11;14.95;;;10.63;;
77409;SDS011;66481;51.332;22.804;2023-04-24T19:42:12;14.10;;;7.22;;
77409;SDS011;66481;51.332;22.804;2023-04-24T19:46:13;7.00;;;4.93;;
77409;SDS011;66481;51.332;22.804;2023-04-24T19:50:15;10.32;;;6.50;;
77409;SDS011;66481;51.332;22.804;2023-04-24T19:54:16;13.20;;;6.63;;
77409;SDS011;66481;51.332;22.804;2023-04-24T20:02:21;10.40;;;7.15;;
77409;SDS011;66481;51.332;22.804;2023-04-24T20:06:22;14.30;;;9.68;;
77409;SDS011;66481;51.332;22.804;2023-04-24T20:10:24;10.80;;;7.28;;
77409;SDS011;66481;51.332;22.804;2023-04-24T20:14:25;8.18;;;6.25;;
77409;SDS011;66481;51.332;22.804;2023-04-24T20:18:29;12.23;;;6.40;;
77409;SDS011;66481;51.332;22.804;2023-04-24T20:22:30;10.93;;;6.78;;
77409;SDS011;66481;51.332;22.804;2023-04-24T20:26:35;9.07;;;6.57;;
77409;SDS011;66481;51.332;22.804;2023-04-24T20:30:37;10.07;;;7.45;;
77409;SDS011;66481;51.332;22.804;2023-04-24T20:34:38;8.95;;;6.68;;
77409;SDS011;66481;51.332;22.804;2023-04-24T20:38:45;8.35;;;6.13;;
77409;SDS011;66481;51.332;22.804;2023-04-24T20:42:49;9.50;;;6.10;;
77409;SDS011;66481;51.332;22.804;2023-04-24T20:46:51;9.65;;;6.53;;
77409;SDS011;66481;51.332;22.804;2023-04-24T20:50:52;9.15;;;6.85;;
77409;SDS011;66481;51.332;22.804;2023-04-24T20:54:53;13.32;;;7.10;;
77409;SDS011;66481;51.332;22.804;2023-04-24T20:58:54;9.85;;;7.47;;
77409;SDS011;66481;51.332;22.804;2023-04-24T21:02:56;9.13;;;6.57;;
77409;SDS011;66481;51.332;22.804;2023-04-24T21:06:57;9.55;;;7.57;;
77409;SDS011;66481;51.332;22.804;2023-04-24T21:10:58;9.95;;;8.13;;
77409;SDS011;66481;51.332;22.804;2023-04-24T21:14:59;12.40;;;7.68;;
77409;SDS011;66481;51.332;22.804;2023-04-24T21:19:01;12.65;;;7.88;;
77409;SDS011;66481;51.332;22.804;2023-04-24T21:23:03;12.02;;;8.00;;
77409;SDS011;66481;51.332;22.804;2023-04-24T21:27:04;10.98;;;8.07;;
77409;SDS011;66481;51.332;22.804;2023-04-24T21:31:05;12.25;;;8.57;;
77409;SDS011;66481;51.332;22.804;2023-04-24T21:35:06;10.43;;;8.13;;
77409;SDS011;66481;51.332;22.804;2023-04-24T21:39:08;9.68;;;7.85;;
77409;SDS011;66481;51.332;22.804;2023-04-24T21:43:10;10.85;;;8.57;;
77409;SDS011;66481;51.332;22.804;2023-04-24T21:47:11;11.98;;;8.98;;
77409;SDS011;66481;51.332;22.804;2023-04-24T21:51:13;12.23;;;8.85;;
77409;SDS011;66481;51.332;22.804;2023-04-24T21:55:14;13.30;;;8.90;;
77409;SDS011;66481;51.332;22.804;2023-04-24T21:59:15;11.90;;;9.30;;
77409;SDS011;66481;51.332;22.804;2023-04-24T22:03:16;13.18;;;8.98;;
77409;SDS011;66481;51.332;22.804;2023-04-24T22:07:17;16.35;;;9.73;;
77409;SDS011;66481;51.332;22.804;2023-04-24T22:11:18;15.02;;;10.27;;
77409;SDS011;66481;51.332;22.804;2023-04-24T22:15:19;13.55;;;9.45;;
77409;SDS011;66481;51.332;22.804;2023-04-24T22:19:20;14.55;;;9.77;;
77409;SDS011;66481;51.332;22.804;2023-04-24T22:23:21;14.43;;;9.63;;
77409;SDS011;66481;51.332;22.804;2023-04-24T22:27:22;12.35;;;9.85;;
77409;SDS011;66481;51.332;22.804;2023-04-24T22:31:23;13.32;;;9.15;;
77409;SDS011;66481;51.332;22.804;2023-04-24T22:35:24;12.90;;;8.52;;
77409;SDS011;66481;51.332;22.804;2023-04-24T22:39:25;11.63;;;8.75;;
77409;SDS011;66481;51.332;22.804;2023-04-24T22:43:26;12.30;;;8.80;;
77409;SDS011;66481;51.332;22.804;2023-04-24T22:47:29;12.02;;;9.55;;
77409;SDS011;66481;51.332;22.804;2023-04-24T22:51:30;16.35;;;9.77;;
77409;SDS011;66481;51.332;22.804;2023-04-24T22:55:34;24.05;;;12.60;;
77409;SDS011;66481;51.332;22.804;2023-04-24T22:59:35;14.60;;;9.98;;
77409;SDS011;66481;51.332;22.804;2023-04-24T23:03:36;15.75;;;10.40;;
77409;SDS011;66481;51.332;22.804;2023-04-24T23:07:37;18.67;;;10.32;;
77409;SDS011;66481;51.332;22.804;2023-04-24T23:11:38;17.27;;;9.70;;
77409;SDS011;66481;51.332;22.804;2023-04-24T23:15:40;17.55;;;10.65;;
77409;SDS011;66481;51.332;22.804;2023-04-24T23:19:41;16.05;;;10.70;;
77409;SDS011;66481;51.332;22.804;2023-04-24T23:23:42;13.65;;;9.65;;
77409;SDS011;66481;51.332;22.804;2023-04-24T23:27:43;14.00;;;9.90;;
77409;SDS011;66481;51.332;22.804;2023-04-24T23:31:44;12.70;;;9.13;;
77409;SDS011;66481;51.332;22.804;2023-04-24T23:35:45;12.23;;;9.57;;
77409;SDS011;66481;51.332;22.804;2023-04-24T23:39:47;16.17;;;9.93;;
77409;SDS011;66481;51.332;22.804;2023-04-24T23:43:48;12.07;;;9.60;;
77409;SDS011;66481;51.332;22.804;2023-04-24T23:47:49;14.07;;;10.27;;
77409;SDS011;66481;51.332;22.804;2023-04-24T23:51:50;14.77;;;10.27;;
77409;SDS011;66481;51.332;22.804;2023-04-24T23:55:51;13.35;;;9.52;;
77409;SDS011;66481;51.332;22.804;2023-04-24T23:59:52;16.80;;;10.52;;
